createdAt,value
2019-03-26T00:00:29.005Z,4.70
2019-03-26T00:02:59.796Z,4.60
2019-03-26T00:05:30.585Z,5.28
2019-03-26T00:08:02.382Z,5.42
2019-03-26T00:10:33.295Z,5.80
2019-03-26T00:13:04.144Z,5.75
2019-03-26T00:15:36.187Z,6.22
2019-03-26T00:18:07.390Z,6.40
2019-03-26T00:20:38.224Z,5.90
2019-03-26T00:23:08.939Z,6.72
2019-03-26T00:25:40.409Z,6.85
2019-03-26T00:28:11.317Z,7.90
2019-03-26T00:30:42.227Z,8.18
2019-03-26T00:33:12.964Z,6.00
2019-03-26T00:35:43.996Z,7.45
2019-03-26T00:38:14.820Z,7.70
2019-03-26T00:40:45.658Z,7.95
2019-03-26T00:43:16.457Z,8.48
2019-03-26T00:45:47.291Z,8.15
2019-03-26T00:48:18.191Z,8.33
2019-03-26T00:50:49.131Z,8.10
2019-03-26T00:53:19.915Z,8.43
2019-03-26T00:55:50.739Z,7.95
2019-03-26T00:58:21.480Z,8.03
2019-03-26T01:00:52.405Z,7.50
2019-03-26T01:03:23.229Z,7.87
2019-03-26T01:05:54.071Z,8.25
2019-03-26T01:08:24.944Z,7.78
2019-03-26T01:10:55.779Z,8.63
2019-03-26T01:13:26.592Z,7.62
2019-03-26T01:15:57.339Z,7.28
2019-03-26T01:18:28.189Z,8.13
2019-03-26T01:20:59.009Z,8.03
2019-03-26T01:23:29.747Z,8.63
2019-03-26T01:26:00.592Z,7.95
2019-03-26T01:28:31.476Z,8.63
2019-03-26T01:31:02.395Z,9.28
2019-03-26T01:33:33.224Z,9.80
2019-03-26T01:36:04.210Z,8.53
2019-03-26T01:38:35.008Z,9.80
2019-03-26T01:41:05.912Z,9.65
2019-03-26T01:43:36.876Z,9.15
2019-03-26T01:46:07.787Z,9.05
2019-03-26T01:48:38.611Z,10.20
2019-03-26T01:51:09.607Z,8.58
2019-03-26T01:53:40.393Z,8.55
2019-03-26T01:56:11.292Z,8.78
2019-03-26T01:58:42.108Z,9.53
2019-03-26T02:01:13.356Z,8.83
2019-03-26T02:03:44.251Z,9.53
2019-03-26T02:06:15.155Z,8.18
2019-03-26T02:08:45.988Z,7.97
2019-03-26T02:11:16.824Z,8.90
2019-03-26T02:13:47.581Z,8.00
2019-03-26T02:16:18.431Z,8.58
2019-03-26T02:18:49.332Z,8.53
2019-03-26T02:21:20.379Z,8.80
2019-03-26T02:23:51.336Z,8.98
2019-03-26T02:26:22.387Z,8.15
2019-03-26T02:28:53.193Z,9.68
2019-03-26T02:31:24.023Z,9.20
2019-03-26T02:33:54.752Z,9.10
2019-03-26T02:36:25.527Z,8.30
2019-03-26T02:38:56.366Z,8.15
2019-03-26T02:41:27.478Z,8.25
2019-03-26T02:43:58.201Z,9.40
2019-03-26T02:46:28.984Z,9.60
2019-03-26T02:48:59.723Z,9.10
2019-03-26T02:51:30.557Z,8.75
2019-03-26T02:54:01.368Z,9.65
2019-03-26T02:56:32.277Z,8.63
2019-03-26T02:59:03.012Z,9.23
2019-03-26T03:01:34.088Z,9.00
2019-03-26T03:04:04.991Z,9.53
2019-03-26T03:06:35.836Z,9.20
2019-03-26T03:09:07.186Z,9.48
2019-03-26T03:11:37.991Z,9.80
2019-03-26T03:14:08.722Z,10.00
2019-03-26T03:16:39.747Z,9.53
2019-03-26T03:19:10.485Z,9.65
2019-03-26T03:21:41.392Z,10.23
2019-03-26T03:24:12.132Z,9.80
2019-03-26T03:26:42.978Z,10.23
2019-03-26T03:29:13.816Z,10.65
2019-03-26T03:31:44.664Z,9.78
2019-03-26T03:34:15.474Z,9.13
2019-03-26T03:36:46.378Z,9.63
2019-03-26T03:39:17.178Z,10.63
2019-03-26T03:41:48.052Z,10.43
2019-03-26T03:44:18.788Z,10.40
2019-03-26T03:46:50.357Z,10.20
2019-03-26T03:49:24.604Z,10.13
2019-03-26T03:51:56.615Z,10.33
2019-03-26T03:54:27.816Z,9.98
2019-03-26T03:57:01.106Z,9.83
2019-03-26T03:59:32.407Z,10.50
2019-03-26T04:02:03.146Z,9.73
2019-03-26T04:04:33.889Z,10.32
2019-03-26T04:07:04.804Z,10.30
2019-03-26T04:09:35.553Z,9.73
2019-03-26T04:12:06.417Z,10.35
2019-03-26T04:14:37.493Z,8.43
2019-03-26T04:17:08.261Z,10.00
2019-03-26T04:19:38.997Z,11.03
2019-03-26T04:22:09.831Z,10.90
2019-03-26T04:24:40.851Z,11.10
2019-03-26T04:27:11.701Z,10.80
2019-03-26T04:29:42.625Z,11.28
2019-03-26T04:32:13.411Z,11.08
2019-03-26T04:34:44.159Z,10.63
2019-03-26T04:37:14.930Z,12.63
2019-03-26T04:39:45.769Z,10.88
2019-03-26T04:42:16.533Z,11.30
2019-03-26T04:44:47.282Z,11.55
2019-03-26T04:47:18.058Z,11.15
2019-03-26T04:49:48.944Z,11.63
2019-03-26T04:52:19.785Z,11.45
2019-03-26T04:54:50.692Z,11.73
2019-03-26T04:57:21.460Z,11.38
2019-03-26T04:59:52.275Z,12.63
2019-03-26T05:02:23.178Z,11.95
2019-03-26T05:04:54.121Z,12.53
2019-03-26T05:07:24.938Z,11.33
2019-03-26T05:09:55.696Z,13.40
2019-03-26T05:12:26.468Z,12.43
2019-03-26T05:14:57.483Z,12.75
2019-03-26T05:17:28.225Z,12.93
2019-03-26T05:19:59.004Z,12.68
2019-03-26T05:22:29.735Z,11.88
2019-03-26T05:25:00.567Z,13.03
2019-03-26T05:27:44.810Z,12.58
2019-03-26T05:30:06.435Z,12.68
2019-03-26T05:32:37.391Z,12.95
2019-03-26T05:35:09.789Z,12.40
2019-03-26T05:37:40.535Z,13.15
2019-03-26T05:40:12.134Z,13.98
2019-03-26T05:42:43.869Z,14.43
2019-03-26T05:45:17.408Z,15.30
2019-03-26T05:47:48.317Z,15.32
2019-03-26T05:50:19.221Z,15.45
2019-03-26T05:52:51.024Z,15.32
2019-03-26T05:55:21.846Z,16.77
2019-03-26T05:57:52.711Z,16.25
2019-03-26T06:00:25.464Z,17.07
2019-03-26T06:02:56.377Z,19.40
2019-03-26T06:05:27.196Z,19.77
2019-03-26T06:07:58.019Z,19.35
2019-03-26T06:10:28.909Z,19.75
2019-03-26T06:12:59.743Z,20.45
2019-03-26T06:15:30.497Z,17.35
2019-03-26T06:18:01.333Z,18.80
2019-03-26T06:20:32.088Z,18.37
2019-03-26T06:23:03.596Z,17.07
2019-03-26T06:25:34.540Z,16.37
2019-03-26T06:28:05.682Z,17.10
2019-03-26T06:30:36.541Z,16.70
2019-03-26T06:33:07.359Z,17.95
2019-03-26T06:35:38.228Z,16.93
2019-03-26T06:38:09.130Z,16.97
2019-03-26T06:40:39.959Z,17.82
2019-03-26T06:43:10.711Z,16.80
2019-03-26T06:45:41.465Z,17.42
2019-03-26T06:48:12.372Z,15.93
2019-03-26T06:50:43.495Z,16.23
2019-03-26T06:53:14.231Z,15.40
2019-03-26T06:55:45.057Z,15.32
2019-03-26T06:58:16.939Z,15.83
2019-03-26T07:00:47.792Z,14.87
2019-03-26T07:03:19.788Z,13.83
2019-03-26T07:05:51.500Z,14.63
2019-03-26T07:08:22.380Z,15.25
2019-03-26T07:10:53.115Z,15.23
2019-03-26T07:13:23.928Z,13.30
2019-03-26T07:15:54.753Z,13.25
2019-03-26T07:18:25.492Z,13.70
2019-03-26T07:20:56.397Z,13.28
2019-03-26T07:23:27.280Z,14.65
2019-03-26T07:25:58.103Z,12.30
2019-03-26T07:28:28.989Z,13.95
2019-03-26T07:30:59.886Z,13.60
2019-03-26T07:33:30.849Z,14.10
2019-03-26T07:36:01.674Z,12.98
2019-03-26T07:38:32.595Z,12.55
2019-03-26T07:41:03.823Z,12.75
2019-03-26T07:43:34.648Z,12.95
2019-03-26T07:46:05.460Z,12.88
2019-03-26T07:48:36.284Z,12.78
2019-03-26T07:51:07.147Z,11.83
2019-03-26T07:53:39.127Z,11.90
2019-03-26T07:56:10.078Z,10.63
2019-03-26T07:58:41.003Z,10.20
2019-03-26T08:01:11.775Z,10.85
2019-03-26T08:03:42.607Z,10.75
2019-03-26T08:06:13.348Z,11.30
2019-03-26T08:08:44.449Z,12.25
2019-03-26T08:11:15.220Z,13.03
2019-03-26T08:13:46.058Z,12.05
2019-03-26T08:16:17.924Z,12.98
2019-03-26T08:18:48.724Z,9.83
2019-03-26T08:21:19.487Z,8.38
2019-03-26T08:23:50.216Z,8.63
2019-03-26T08:26:21.055Z,8.38
2019-03-26T08:28:51.868Z,7.78
2019-03-26T08:31:22.791Z,8.48
2019-03-26T08:33:53.599Z,8.48
2019-03-26T08:36:24.407Z,8.25
2019-03-26T08:38:55.587Z,8.30
2019-03-26T08:41:26.455Z,7.33
2019-03-26T08:43:57.174Z,6.42
2019-03-26T08:46:27.931Z,5.97
2019-03-26T08:48:58.648Z,6.12
2019-03-26T08:51:29.404Z,6.10
2019-03-26T08:54:00.291Z,6.20
2019-03-26T08:56:31.119Z,6.42
2019-03-26T08:59:01.942Z,7.83
2019-03-26T09:01:32.784Z,6.83
2019-03-26T09:04:03.496Z,6.85
2019-03-26T09:06:34.307Z,7.03
2019-03-26T09:09:07.411Z,6.60
2019-03-26T09:11:38.680Z,6.17
2019-03-26T09:14:09.645Z,6.20
2019-03-26T09:16:40.383Z,6.03
2019-03-26T09:19:11.112Z,6.08
2019-03-26T09:21:41.972Z,5.80
2019-03-26T09:24:12.824Z,5.60
2019-03-26T09:26:43.647Z,5.25
2019-03-26T09:29:14.375Z,5.97
2019-03-26T09:31:45.185Z,5.90
2019-03-26T09:34:15.989Z,6.53
2019-03-26T09:36:47.091Z,6.10
2019-03-26T09:39:17.892Z,4.97
2019-03-26T09:41:48.911Z,5.95
2019-03-26T09:44:19.631Z,5.85
2019-03-26T09:46:50.527Z,5.20
2019-03-26T09:49:21.407Z,5.37
2019-03-26T09:51:52.375Z,5.55
2019-03-26T09:54:23.272Z,5.03
2019-03-26T09:56:54.096Z,5.20
2019-03-26T09:59:24.846Z,5.47
2019-03-26T10:01:55.756Z,5.33
2019-03-26T10:04:26.492Z,5.47
2019-03-26T10:06:57.490Z,4.70
2019-03-26T10:09:29.288Z,4.95
2019-03-26T10:12:08.799Z,4.60
2019-03-26T10:14:39.913Z,4.55
2019-03-26T10:17:10.726Z,5.40
2019-03-26T10:19:41.479Z,4.17
2019-03-26T10:22:12.294Z,4.35
2019-03-26T10:24:43.088Z,4.35
2019-03-26T10:27:13.893Z,4.28
2019-03-26T10:29:44.611Z,4.90
2019-03-26T10:32:15.740Z,5.25
2019-03-26T10:34:46.979Z,4.70
2019-03-26T10:37:18.127Z,5.03
2019-03-26T10:39:49.297Z,5.30
2019-03-26T10:42:20.470Z,4.65
2019-03-26T10:44:51.996Z,4.72
2019-03-26T10:47:28.260Z,4.33
2019-03-26T10:49:59.316Z,3.80
2019-03-26T10:52:34.144Z,3.92
2019-03-26T10:55:03.419Z,3.92
2019-03-26T10:57:34.570Z,3.85
2019-03-26T11:00:09.508Z,3.45
2019-03-26T11:05:12.744Z,3.77
2019-03-26T11:07:44.850Z,3.60
2019-03-26T11:10:17.556Z,3.90
2019-03-26T11:12:48.898Z,3.47
2019-03-26T11:15:21.876Z,3.37
2019-03-26T11:17:54.369Z,3.37
2019-03-26T11:20:25.640Z,3.37
2019-03-26T11:22:57.547Z,5.05
2019-03-26T11:25:28.838Z,4.03
2019-03-26T11:27:59.996Z,3.25
2019-03-26T11:30:31.176Z,3.50
2019-03-26T11:33:02.340Z,2.90
2019-03-26T11:35:33.501Z,3.00
2019-03-26T11:38:04.712Z,3.70
2019-03-26T11:40:45.841Z,3.98
2019-03-26T11:43:33.824Z,3.37
2019-03-26T11:46:09.382Z,4.45
2019-03-26T11:48:43.031Z,4.17
2019-03-26T11:51:17.248Z,4.33
2019-03-26T11:53:51.137Z,3.52
2019-03-26T11:56:24.769Z,3.80
2019-03-26T11:58:58.648Z,3.33
2019-03-26T12:01:41.534Z,3.17
2019-03-26T12:04:21.581Z,3.55
2019-03-26T12:06:55.465Z,3.40
2019-03-26T12:09:26.744Z,3.25
2019-03-26T12:11:58.052Z,3.08
2019-03-26T12:14:29.327Z,3.70
2019-03-26T12:17:00.574Z,3.58
2019-03-26T12:19:34.235Z,3.45
2019-03-26T12:22:05.740Z,3.25
2019-03-26T12:24:37.014Z,3.45
2019-03-26T12:27:08.140Z,2.85
2019-03-26T12:29:39.256Z,3.45
2019-03-26T12:32:10.467Z,3.92
2019-03-26T12:34:41.633Z,3.72
2019-03-26T12:37:12.794Z,4.30
2019-03-26T12:39:44.336Z,4.20
2019-03-26T12:42:15.680Z,4.20
2019-03-26T12:44:46.807Z,4.05
2019-03-26T12:47:18.931Z,4.12
2019-03-26T12:49:50.139Z,4.20
2019-03-26T12:52:20.876Z,3.35
2019-03-26T12:54:51.608Z,3.70
2019-03-26T12:57:22.503Z,3.55
2019-03-26T12:59:53.468Z,4.08
2019-03-26T13:02:26.547Z,3.55
2019-03-26T13:04:58.240Z,5.70
2019-03-26T13:07:29.015Z,3.30
2019-03-26T13:10:12.789Z,3.58
2019-03-26T13:12:32.495Z,3.37
2019-03-26T13:15:03.308Z,3.50
2019-03-26T13:17:35.196Z,3.90
2019-03-26T13:20:07.219Z,4.15
2019-03-26T13:22:38.003Z,3.67
2019-03-26T13:25:09.741Z,3.42
2019-03-26T13:27:40.575Z,4.03
2019-03-26T13:30:11.955Z,4.10
2019-03-26T13:32:42.699Z,3.80
2019-03-26T13:35:13.699Z,3.85
2019-03-26T13:37:44.415Z,3.72
2019-03-26T13:40:26.566Z,3.65
2019-03-26T13:42:48.283Z,4.08
2019-03-26T13:45:19.410Z,4.00
2019-03-26T13:47:50.364Z,4.25
2019-03-26T13:50:21.283Z,4.03
2019-03-26T13:52:52.509Z,3.83
2019-03-26T13:55:23.319Z,4.08
2019-03-26T13:57:54.285Z,4.75
2019-03-26T14:00:36.281Z,6.37
2019-03-26T14:03:07.340Z,4.80
2019-03-26T14:05:38.139Z,5.22
2019-03-26T14:08:09.096Z,4.78
2019-03-26T14:10:41.472Z,4.85
2019-03-26T14:13:12.516Z,4.42
2019-03-26T14:15:43.245Z,4.00
2019-03-26T14:18:14.108Z,5.20
2019-03-26T14:20:44.987Z,5.60
2019-03-26T14:23:15.939Z,5.40
2019-03-26T14:25:46.832Z,4.03
2019-03-26T14:28:17.700Z,4.80
2019-03-26T14:30:48.438Z,3.92
2019-03-26T14:33:19.283Z,4.17
2019-03-26T14:35:50.186Z,4.05
2019-03-26T14:38:21.075Z,3.62
2019-03-26T14:40:55.213Z,3.95
2019-03-26T14:43:24.485Z,4.00
2019-03-26T14:45:55.299Z,4.17
2019-03-26T14:48:26.115Z,4.05
2019-03-26T14:50:57.219Z,3.77
2019-03-26T14:53:28.331Z,4.10
2019-03-26T14:56:06.633Z,3.90
2019-03-26T14:58:41.219Z,4.03
2019-03-26T15:01:13.224Z,4.42
2019-03-26T15:03:43.960Z,4.05
2019-03-26T15:06:14.944Z,4.08
2019-03-26T15:08:45.852Z,3.60
2019-03-26T15:11:16.655Z,4.28
2019-03-26T15:13:49.442Z,4.53
2019-03-26T15:16:19.928Z,4.17
2019-03-26T15:18:50.683Z,4.28
2019-03-26T15:21:21.523Z,4.80
2019-03-26T15:23:52.259Z,4.08
2019-03-26T15:26:23.034Z,4.55
2019-03-26T15:28:53.827Z,4.15
2019-03-26T15:31:24.583Z,4.37
2019-03-26T15:33:55.359Z,4.15
2019-03-26T15:36:26.276Z,6.35
2019-03-26T15:38:57.245Z,4.40
2019-03-26T15:41:30.260Z,4.60
2019-03-26T15:44:00.591Z,4.62
2019-03-26T15:46:31.495Z,9.40
2019-03-26T15:49:02.407Z,5.65
2019-03-26T15:51:33.711Z,5.60
2019-03-26T15:54:04.519Z,7.47
2019-03-26T15:56:35.327Z,8.25
2019-03-26T15:59:06.209Z,5.05
2019-03-26T16:01:36.978Z,4.55
2019-03-26T16:04:07.775Z,4.37
2019-03-26T16:06:38.612Z,4.85
2019-03-26T16:09:09.523Z,4.10
2019-03-26T16:11:40.383Z,4.60
2019-03-26T16:14:11.200Z,4.25
2019-03-26T16:16:42.144Z,4.12
2019-03-26T16:19:12.871Z,4.30
2019-03-26T16:21:43.722Z,4.30
2019-03-26T16:24:14.576Z,4.17
2019-03-26T16:26:45.408Z,4.60
2019-03-26T16:29:16.116Z,3.90
2019-03-26T16:31:46.865Z,4.45
2019-03-26T16:34:17.680Z,4.30
2019-03-26T16:36:58.973Z,3.83
2019-03-26T16:39:21.026Z,4.10
2019-03-26T16:41:51.898Z,4.12
2019-03-26T16:44:22.772Z,4.30
2019-03-26T16:46:53.563Z,3.98
2019-03-26T16:49:24.776Z,4.37
2019-03-26T16:51:55.672Z,4.37
2019-03-26T16:54:26.407Z,3.67
2019-03-26T16:56:57.171Z,3.90
2019-03-26T16:59:27.928Z,4.50
2019-03-26T17:01:59.807Z,4.25
2019-03-26T17:04:30.819Z,3.77
2019-03-26T17:07:02.709Z,4.05
2019-03-26T17:09:33.454Z,3.75
2019-03-26T17:12:04.527Z,4.08
2019-03-26T17:14:35.260Z,3.85
2019-03-26T17:17:06.217Z,4.37
2019-03-26T17:19:37.090Z,4.40
2019-03-26T17:22:08.026Z,4.15
2019-03-26T17:24:38.787Z,4.12
2019-03-26T17:27:09.751Z,4.00
2019-03-26T17:29:40.670Z,3.77
2019-03-26T17:32:11.804Z,3.77
2019-03-26T17:34:42.859Z,4.08
2019-03-26T17:37:13.902Z,3.65
2019-03-26T17:39:44.970Z,3.67
2019-03-26T17:42:17.541Z,3.85
2019-03-26T17:44:48.834Z,3.67
2019-03-26T17:47:20.982Z,3.50
2019-03-26T17:49:52.039Z,3.50
2019-03-26T17:52:22.934Z,4.00
2019-03-26T17:54:53.735Z,3.80
2019-03-26T17:57:24.638Z,3.80
2019-03-26T17:59:55.521Z,3.65
2019-03-26T18:02:27.790Z,4.03
2019-03-26T18:04:58.723Z,3.98
2019-03-26T18:07:29.510Z,3.42
2019-03-26T18:10:01.436Z,4.33
2019-03-26T18:12:32.260Z,3.47
2019-03-26T18:15:03.440Z,3.85
2019-03-26T18:17:34.295Z,3.37
2019-03-26T18:20:05.552Z,3.75
2019-03-26T18:22:36.409Z,3.17
2019-03-26T18:25:07.336Z,4.30
2019-03-26T18:27:38.250Z,3.02
2019-03-26T18:30:09.289Z,3.27
2019-03-26T18:32:40.453Z,3.35
2019-03-26T18:35:11.492Z,3.33
2019-03-26T18:37:42.505Z,3.40
2019-03-26T18:40:14.139Z,3.55
2019-03-26T18:42:45.251Z,3.95
2019-03-26T18:45:22.705Z,3.10
2019-03-26T18:47:54.071Z,3.52
2019-03-26T18:50:25.054Z,3.85
2019-03-26T18:52:56.120Z,3.80
2019-03-26T18:55:27.136Z,3.70
2019-03-26T18:57:58.347Z,3.52
2019-03-26T19:04:36.619Z,3.70
2019-03-26T19:07:08.587Z,4.80
2019-03-26T19:09:40.463Z,5.20
2019-03-26T19:12:11.341Z,4.62
2019-03-26T19:14:42.161Z,5.42
2019-03-26T19:17:12.879Z,5.75
2019-03-26T19:19:43.694Z,5.70
2019-03-26T19:22:14.608Z,5.65
2019-03-26T19:24:45.411Z,6.03
2019-03-26T19:27:16.223Z,5.78
2019-03-26T19:29:47.236Z,6.30
2019-03-26T19:32:18.156Z,5.72
2019-03-26T19:34:48.932Z,5.33
2019-03-26T19:37:19.717Z,4.92
2019-03-26T19:39:50.508Z,5.20
2019-03-26T19:42:21.284Z,5.62
2019-03-26T19:44:52.039Z,5.90
2019-03-26T19:47:22.827Z,5.65
2019-03-26T19:49:53.844Z,5.92
2019-03-26T19:52:24.632Z,5.78
2019-03-26T19:54:56.433Z,6.30
2019-03-26T19:57:27.341Z,5.78
2019-03-26T19:59:58.067Z,6.12
2019-03-26T20:02:28.883Z,6.40
2019-03-26T20:04:59.603Z,5.95
2019-03-26T20:07:30.424Z,5.80
2019-03-26T20:10:01.274Z,6.17
2019-03-26T20:12:32.069Z,6.25
2019-03-26T20:15:02.892Z,6.47
2019-03-26T20:17:33.758Z,7.35
2019-03-26T20:20:04.924Z,6.67
2019-03-26T20:22:35.932Z,6.92
2019-03-26T20:25:07.690Z,6.50
2019-03-26T20:27:38.580Z,7.08
2019-03-26T20:30:11.516Z,6.33
2019-03-26T20:32:42.415Z,6.10
2019-03-26T20:35:13.431Z,6.15
2019-03-26T20:37:44.307Z,5.95
2019-03-26T20:40:15.608Z,5.55
2019-03-26T20:42:46.488Z,5.05
2019-03-26T20:45:18.385Z,4.80
2019-03-26T20:47:49.108Z,5.60
2019-03-26T20:50:20.310Z,5.28
2019-03-26T20:52:51.225Z,5.67
2019-03-26T20:55:31.468Z,5.42
2019-03-26T20:58:02.335Z,5.60
2019-03-26T21:00:37.731Z,5.47
2019-03-26T21:03:09.065Z,5.03
2019-03-26T21:05:40.054Z,5.35
2019-03-26T21:08:10.900Z,5.55
2019-03-26T21:10:41.815Z,5.15
2019-03-26T21:13:12.622Z,5.58
2019-03-26T21:15:56.352Z,5.90
2019-03-26T21:18:15.860Z,6.95
2019-03-26T21:20:46.587Z,6.85
2019-03-26T21:23:17.399Z,6.85
2019-03-26T21:25:48.193Z,5.78
2019-03-26T21:28:19.010Z,5.70
2019-03-26T21:30:49.813Z,5.75
2019-03-26T21:33:23.020Z,5.17
2019-03-26T21:35:54.469Z,4.92
2019-03-26T21:38:25.619Z,4.90
2019-03-26T21:40:56.419Z,4.85
2019-03-26T21:43:27.379Z,5.28
2019-03-26T21:45:58.124Z,4.87
2019-03-26T21:48:28.872Z,4.95
2019-03-26T21:50:59.654Z,4.22
2019-03-26T21:53:30.556Z,5.22
2019-03-26T21:56:06.871Z,4.85
2019-03-26T21:58:33.982Z,5.55
2019-03-26T22:01:05.866Z,5.33
2019-03-26T22:03:36.675Z,4.92
2019-03-26T22:06:07.564Z,4.72
2019-03-26T22:08:38.364Z,5.05
2019-03-26T22:11:09.162Z,4.70
2019-03-26T22:13:39.928Z,4.80
2019-03-26T22:16:10.677Z,4.90
2019-03-26T22:18:41.420Z,4.08
2019-03-26T22:21:13.059Z,3.92
2019-03-26T22:23:43.868Z,4.08
2019-03-26T22:26:14.586Z,3.80
2019-03-26T22:28:45.384Z,4.20
2019-03-26T22:31:16.110Z,3.85
2019-03-26T22:33:46.973Z,3.60
2019-03-26T22:36:18.668Z,3.98
2019-03-26T22:38:49.593Z,4.10
2019-03-26T22:41:20.599Z,4.42
2019-03-26T22:43:51.331Z,4.70
2019-03-26T22:46:25.133Z,3.95
2019-03-26T22:48:56.021Z,4.00
2019-03-26T22:51:26.823Z,4.22
2019-03-26T22:53:57.650Z,3.83
2019-03-26T22:56:28.372Z,4.10
2019-03-26T22:58:59.248Z,4.10
2019-03-26T23:01:30.132Z,4.10
2019-03-26T23:04:00.927Z,4.05
2019-03-26T23:06:31.842Z,4.00
2019-03-26T23:09:04.525Z,3.90
2019-03-26T23:11:37.000Z,3.72
2019-03-26T23:14:07.894Z,3.90
2019-03-26T23:16:38.844Z,3.77
2019-03-26T23:19:09.655Z,4.85
2019-03-26T23:21:40.386Z,4.45
2019-03-26T23:24:11.119Z,4.72
2019-03-26T23:26:42.021Z,4.95
2019-03-26T23:29:14.400Z,4.80
2019-03-26T23:31:45.208Z,4.28
2019-03-26T23:34:16.015Z,4.67
2019-03-26T23:36:46.764Z,4.55
2019-03-26T23:39:17.499Z,5.05
2019-03-26T23:41:48.258Z,5.17
2019-03-26T23:44:25.706Z,5.15
2019-03-26T23:46:51.651Z,5.03
2019-03-26T23:49:22.397Z,4.67
2019-03-26T23:51:53.125Z,4.58
2019-03-26T23:54:23.942Z,4.70
2019-03-26T23:56:54.877Z,5.08
2019-03-26T23:59:25.679Z,4.60
